Time;durP1;ratioP1;P1;durP2;ratioP2;P2;SDS_P1;SDS_P2;PMS_P1;PMS_P2;Temp;Humidity;BMP_temperature;BMP_pressure;BME280_temperature;BME280_humidity;BME280_pressure;Samples;Min_cycle;Max_cycle;Signal;HPM_P1;HPM_P2
2022/05/27 00:00:52;;;;;;;1.83;1.73;;;13.50;99.90;;;;;;488603;243;28129;-71
2022/05/27 00:02:53;;;;;;;1.90;1.80;;;13.50;99.90;;;;;;488577;243;28376;-71
2022/05/27 00:04:54;;;;;;;1.90;1.80;;;13.50;99.90;;;;;;488578;243;28709;-71
2022/05/27 00:06:56;;;;;;;1.87;1.77;;;13.50;99.90;;;;;;488595;243;28614;-71
2022/05/27 00:08:57;;;;;;;1.70;1.60;;;13.40;99.90;;;;;;488640;243;28598;-72
2022/05/27 00:10:58;;;;;;;1.50;1.40;;;13.40;99.90;;;;;;488616;241;28509;-71
2022/05/27 00:12:59;;;;;;;1.43;1.43;;;13.40;99.90;;;;;;488606;243;28288;-71
2022/05/27 00:15:01;;;;;;;3.17;2.00;;;13.40;99.90;;;;;;488470;243;28654;-71
2022/05/27 00:17:02;;;;;;;1.93;1.83;;;13.40;99.90;;;;;;488598;243;28179;-71
2022/05/27 00:19:05;;;;;;;1.70;1.60;;;;;;;;;;488611;243;28716;-71
2022/05/27 00:21:06;;;;;;;1.77;1.67;;;13.30;99.90;;;;;;488495;243;27042;-71
2022/05/27 00:23:07;;;;;;;1.47;1.40;;;13.30;99.90;;;;;;488597;243;28183;-71
2022/05/27 00:25:08;;;;;;;1.63;1.50;;;13.20;99.90;;;;;;488567;243;28172;-71
2022/05/27 00:27:11;;;;;;;1.77;1.67;;;13.20;99.90;;;;;;488596;243;28203;-72
2022/05/27 00:29:12;;;;;;;1.70;1.60;;;13.20;99.90;;;;;;488586;243;28079;-71
2022/05/27 00:31:18;;;;;;;1.83;1.73;;;13.20;99.90;;;;;;488546;243;28548;-71
2022/05/27 00:33:15;;;;;;;1.80;1.70;;;13.20;99.90;;;;;;488278;243;28521;-71
2022/05/27 00:35:16;;;;;;;2.33;2.13;;;13.20;99.90;;;;;;488484;243;28596;-72
2022/05/27 00:37:17;;;;;;;1.83;1.70;;;13.10;99.90;;;;;;488528;243;28646;-71
2022/05/27 00:39:18;;;;;;;2.17;1.77;;;13.10;99.90;;;;;;488531;243;28447;-71
2022/05/27 00:41:20;;;;;;;2.20;1.93;;;13.10;99.90;;;;;;488587;243;28244;-72
2022/05/27 00:43:21;;;;;;;1.77;1.67;;;13.00;99.90;;;;;;488569;243;28235;-71
2022/05/27 00:45:22;;;;;;;1.87;1.77;;;13.00;99.90;;;;;;488552;243;28084;-71
2022/05/27 00:47:23;;;;;;;1.90;1.80;;;13.00;99.90;;;;;;488527;243;28061;-71
2022/05/27 00:49:25;;;;;;;2.17;2.07;;;13.00;99.90;;;;;;488605;243;28318;-70
2022/05/27 00:51:26;;;;;;;1.70;1.60;;;13.00;99.90;;;;;;488646;243;27974;-72
2022/05/27 00:53:27;;;;;;;1.60;1.50;;;12.90;99.90;;;;;;488635;243;28693;-71
2022/05/27 00:55:28;;;;;;;2.00;1.90;;;12.90;99.90;;;;;;488625;243;28326;-71
2022/05/27 00:57:30;;;;;;;2.13;1.93;;;12.90;99.90;;;;;;488591;243;28512;-71
2022/05/27 00:59:31;;;;;;;1.97;1.80;;;12.80;99.90;;;;;;488597;243;28652;-71
2022/05/27 01:01:32;;;;;;;1.80;1.70;;;12.80;99.90;;;;;;488623;243;28684;-74
2022/05/27 01:03:33;;;;;;;2.30;2.10;;;12.80;99.90;;;;;;488562;243;28639;-71
2022/05/27 01:05:35;;;;;;;1.90;1.80;;;12.90;99.90;;;;;;488615;243;28606;-72
2022/05/27 01:07:36;;;;;;;2.03;1.83;;;12.80;99.90;;;;;;488608;243;28270;-71
2022/05/27 01:09:37;;;;;;;1.63;1.53;;;12.90;99.90;;;;;;488615;243;28211;-71
2022/05/27 01:11:38;;;;;;;1.73;1.63;;;12.80;99.90;;;;;;488508;243;28304;-72
2022/05/27 01:13:40;;;;;;;1.90;1.80;;;12.80;99.90;;;;;;488642;243;28672;-71
2022/05/27 01:15:41;;;;;;;1.90;1.80;;;12.80;99.90;;;;;;488625;243;28234;-72
2022/05/27 01:17:42;;;;;;;2.13;2.03;;;12.70;99.90;;;;;;488597;243;28184;-71
2022/05/27 01:22:03;;;;;;;2.67;2.03;;;12.70;99.90;;;;;;488586;243;28507;-71
2022/05/27 01:24:04;;;;;;;2.60;2.20;;;12.60;99.90;;;;;;488595;243;28383;-71
2022/05/27 01:26:05;;;;;;;2.07;1.97;;;12.60;99.90;;;;;;488574;243;28367;-71
2022/05/27 01:28:07;;;;;;;2.40;2.20;;;12.60;99.90;;;;;;488629;243;28713;-73
2022/05/27 01:30:08;;;;;;;2.00;1.90;;;12.60;99.90;;;;;;488641;243;28774;-71
2022/05/27 01:32:09;;;;;;;2.50;2.20;;;12.60;99.90;;;;;;488647;243;28569;-72
2022/05/27 01:34:10;;;;;;;2.40;2.20;;;12.60;99.90;;;;;;488601;243;28631;-71
2022/05/27 01:36:12;;;;;;;2.93;2.73;;;12.70;99.90;;;;;;488589;243;28525;-71
2022/05/27 01:38:13;;;;;;;5.10;2.77;;;12.70;99.90;;;;;;488638;243;28543;-73
2022/05/27 01:40:14;;;;;;;2.70;2.50;;;12.60;99.90;;;;;;488622;243;28450;-71
2022/05/27 01:42:15;;;;;;;2.73;2.47;;;12.70;99.90;;;;;;488622;243;28724;-71
2022/05/27 01:44:17;;;;;;;2.80;2.50;;;12.70;99.90;;;;;;488625;243;28257;-71
2022/05/27 01:46:18;;;;;;;3.97;2.90;;;12.70;99.90;;;;;;488599;243;28800;-72
2022/05/27 01:48:19;;;;;;;3.00;2.70;;;12.70;99.90;;;;;;488637;243;28789;-73
2022/05/27 01:50:21;;;;;;;3.10;2.90;;;12.60;99.90;;;;;;488616;243;28773;-71
2022/05/27 01:52:22;;;;;;;2.83;2.63;;;12.60;99.90;;;;;;488606;243;28731;-72
2022/05/27 01:54:23;;;;;;;3.13;2.50;;;12.50;99.90;;;;;;488588;243;28509;-71
2022/05/27 01:56:24;;;;;;;3.50;2.70;;;12.50;99.90;;;;;;488557;243;28896;-71
2022/05/27 01:58:26;;;;;;;2.67;2.47;;;12.50;99.90;;;;;;488629;243;28708;-73
2022/05/27 02:00:27;;;;;;;2.87;2.67;;;12.50;99.90;;;;;;488583;243;28244;-71
2022/05/27 02:02:28;;;;;;;2.90;2.70;;;12.50;99.90;;;;;;488444;243;28452;-72
2022/05/27 02:04:30;;;;;;;2.67;2.47;;;12.50;99.90;;;;;;488358;243;28515;-71
2022/05/27 02:06:31;;;;;;;3.33;2.53;;;12.40;99.90;;;;;;488356;243;27936;-71
2022/05/27 02:08:32;;;;;;;3.20;2.90;;;12.40;99.90;;;;;;488517;243;28239;-71
2022/05/27 02:10:33;;;;;;;3.50;3.10;;;12.40;99.90;;;;;;488591;243;28353;-71
2022/05/27 02:12:35;;;;;;;3.50;3.10;;;12.50;99.90;;;;;;488578;243;28485;-70
2022/05/27 02:14:36;;;;;;;3.50;3.00;;;12.50;99.90;;;;;;488599;243;28796;-74
2022/05/27 02:16:37;;;;;;;4.07;3.00;;;12.60;99.90;;;;;;488628;243;28852;-71
2022/05/27 02:18:39;;;;;;;5.10;3.03;;;;;;;;;;488617;243;28792;-71
2022/05/27 02:20:40;;;;;;;2.93;2.73;;;12.70;99.90;;;;;;488604;243;26628;-71
2022/05/27 02:22:42;;;;;;;3.50;2.73;;;12.80;99.90;;;;;;488587;243;28054;-73
2022/05/27 02:24:43;;;;;;;3.07;2.83;;;12.90;99.90;;;;;;488614;243;28278;-71
2022/05/27 02:26:44;;;;;;;4.00;3.10;;;12.90;99.90;;;;;;488589;243;28220;-71
2022/05/27 02:28:45;;;;;;;3.00;2.80;;;12.90;99.90;;;;;;488598;243;28738;-71
2022/05/27 02:30:47;;;;;;;3.30;3.10;;;12.90;99.90;;;;;;488568;243;28562;-70
2022/05/27 02:32:48;;;;;;;3.37;3.07;;;12.90;99.90;;;;;;488627;243;28580;-74
2022/05/27 02:35:07;;;;;;;3.50;3.20;;;12.80;99.90;;;;;;488600;243;28508;-72
2022/05/27 02:37:09;;;;;;;3.07;2.87;;;12.80;99.90;;;;;;488614;243;28690;-71
2022/05/27 02:39:10;;;;;;;3.73;3.37;;;12.80;99.90;;;;;;488593;243;28470;-71
2022/05/27 02:41:11;;;;;;;4.10;3.70;;;12.80;99.90;;;;;;488620;243;28201;-71
2022/05/27 02:43:12;;;;;;;4.60;3.73;;;12.90;99.90;;;;;;488622;243;28280;-72
2022/05/27 02:45:14;;;;;;;3.77;3.47;;;12.90;99.90;;;;;;488587;243;28690;-71
2022/05/27 02:47:15;;;;;;;4.53;3.83;;;12.90;99.90;;;;;;488561;243;28864;-71
2022/05/27 02:49:16;;;;;;;3.60;3.30;;;12.90;99.90;;;;;;488581;243;28192;-71
2022/05/27 02:51:17;;;;;;;5.13;4.27;;;13.00;99.90;;;;;;488627;243;28489;-72
2022/05/27 02:53:19;;;;;;;4.53;3.80;;;13.00;99.90;;;;;;488609;243;28087;-72
2022/05/27 02:55:20;;;;;;;5.97;4.20;;;13.00;99.90;;;;;;488599;243;28708;-71
2022/05/27 02:57:21;;;;;;;5.50;4.90;;;12.90;99.90;;;;;;488578;243;28594;-72
2022/05/27 02:59:22;;;;;;;4.47;4.07;;;13.00;99.90;;;;;;488624;243;29669;-71
2022/05/27 03:01:24;;;;;;;6.60;4.63;;;13.00;99.90;;;;;;488620;243;28605;-71
2022/05/27 03:03:25;;;;;;;7.40;5.00;;;13.00;99.90;;;;;;488616;243;28087;-72
2022/05/27 03:05:26;;;;;;;6.43;5.83;;;12.90;99.90;;;;;;488608;243;28137;-71
2022/05/27 03:07:27;;;;;;;5.30;4.67;;;12.90;99.90;;;;;;488601;243;28171;-72
2022/05/27 03:09:29;;;;;;;6.13;5.17;;;13.00;99.90;;;;;;488588;243;28099;-71
2022/05/27 03:11:30;;;;;;;10.10;5.80;;;13.00;99.90;;;;;;488582;243;28087;-71
2022/05/27 03:13:31;;;;;;;4.50;4.10;;;13.00;99.90;;;;;;488359;243;28232;-71
2022/05/27 03:15:32;;;;;;;5.07;4.57;;;12.90;99.90;;;;;;488614;243;28753;-71
2022/05/27 03:17:34;;;;;;;6.30;4.93;;;13.00;99.90;;;;;;488569;243;28324;-71
2022/05/27 03:19:35;;;;;;;4.73;4.10;;;13.00;99.90;;;;;;488596;243;29474;-71
2022/05/27 03:21:36;;;;;;;4.40;4.03;;;13.00;99.90;;;;;;488628;243;28572;-71
2022/05/27 03:23:37;;;;;;;5.27;4.63;;;12.90;99.90;;;;;;488596;243;28561;-72
2022/05/27 03:25:39;;;;;;;5.23;4.73;;;13.00;99.90;;;;;;488609;242;28477;-71
2022/05/27 03:27:40;;;;;;;4.40;4.10;;;13.00;99.90;;;;;;488590;243;28231;-71
2022/05/27 03:29:41;;;;;;;5.10;4.70;;;13.00;99.90;;;;;;488618;243;28071;-71
2022/05/27 03:31:42;;;;;;;5.30;4.80;;;13.00;99.90;;;;;;488632;243;28056;-71
2022/05/27 03:33:44;;;;;;;5.63;4.87;;;13.00;99.90;;;;;;488641;243;28226;-72
2022/05/27 03:35:45;;;;;;;5.20;4.70;;;13.00;99.90;;;;;;488626;242;28170;-71
2022/05/27 03:37:46;;;;;;;4.83;4.33;;;13.00;99.90;;;;;;488547;243;28100;-71
2022/05/27 03:39:48;;;;;;;5.63;4.50;;;13.00;99.90;;;;;;488600;243;28208;-74
2022/05/27 03:41:49;;;;;;;5.17;4.70;;;13.00;99.90;;;;;;488640;243;28269;-71
2022/05/27 03:43:50;;;;;;;6.07;5.10;;;13.00;99.90;;;;;;488617;243;28618;-72
2022/05/27 03:45:51;;;;;;;7.00;4.87;;;13.00;99.90;;;;;;488612;243;28767;-71
2022/05/27 03:47:52;;;;;;;6.10;4.73;;;13.00;99.90;;;;;;488591;243;28668;-71
2022/05/27 03:49:54;;;;;;;4.80;4.10;;;13.00;99.90;;;;;;488598;243;28641;-73
2022/05/27 03:51:55;;;;;;;5.30;4.80;;;12.90;99.90;;;;;;488590;243;28046;-72
2022/05/27 03:54:05;;;;;;;5.13;4.63;;;13.00;99.90;;;;;;488580;243;28748;-71
2022/05/27 03:56:07;;;;;;;5.27;4.77;;;13.00;99.90;;;;;;488570;243;28638;-71
2022/05/27 03:58:08;;;;;;;6.73;4.77;;;12.90;99.90;;;;;;488612;243;29388;-71
2022/05/27 04:00:09;;;;;;;5.17;4.43;;;12.90;99.90;;;;;;488622;243;28264;-71
2022/05/27 04:02:10;;;;;;;5.03;4.60;;;12.90;99.90;;;;;;488571;243;28190;-72
2022/05/27 04:04:13;;;;;;;4.87;4.37;;;;;;;;;;488594;243;28496;-71
2022/05/27 04:06:14;;;;;;;4.87;4.47;;;13.00;99.90;;;;;;488562;242;27767;-71
2022/05/27 04:08:15;;;;;;;5.17;4.60;;;13.00;99.90;;;;;;488609;243;28606;-72
2022/05/27 04:10:17;;;;;;;4.57;4.13;;;13.00;99.90;;;;;;488602;243;28566;-73
2022/05/27 04:12:18;;;;;;;4.73;4.33;;;13.00;99.90;;;;;;488550;242;28259;-71
2022/05/27 04:14:19;;;;;;;4.70;4.13;;;13.00;99.90;;;;;;488531;243;28209;-71
2022/05/27 04:16:20;;;;;;;5.00;4.50;;;13.00;99.90;;;;;;488624;243;28190;-70
2022/05/27 04:18:22;;;;;;;5.20;4.70;;;13.00;99.90;;;;;;488606;242;28350;-72
2022/05/27 04:20:23;;;;;;;7.77;4.70;;;13.00;99.90;;;;;;488614;243;28754;-72
2022/05/27 04:22:24;;;;;;;4.20;3.80;;;13.00;99.90;;;;;;488593;243;28280;-71
2022/05/27 04:24:25;;;;;;;7.83;5.00;;;13.00;99.90;;;;;;488603;243;28168;-71
2022/05/27 04:26:27;;;;;;;4.83;4.43;;;13.10;99.90;;;;;;488646;243;28591;-74
2022/05/27 04:28:28;;;;;;;5.83;4.73;;;13.00;99.90;;;;;;488614;243;28669;-72
2022/05/27 04:30:29;;;;;;;5.10;4.63;;;13.10;99.90;;;;;;488614;243;28678;-71
2022/05/27 04:32:30;;;;;;;5.10;4.70;;;13.10;99.90;;;;;;488615;243;27903;-71
2022/05/27 04:34:32;;;;;;;5.50;5.00;;;13.00;99.90;;;;;;488606;243;28789;-73
2022/05/27 04:36:33;;;;;;;5.90;5.40;;;13.10;99.90;;;;;;488638;243;28412;-72
2022/05/27 04:38:34;;;;;;;6.93;5.43;;;13.10;99.90;;;;;;488549;243;28061;-71
2022/05/27 04:40:35;;;;;;;6.20;5.40;;;13.10;99.90;;;;;;488481;243;28743;-71
2022/05/27 04:42:37;;;;;;;4.90;4.40;;;13.00;99.90;;;;;;488639;243;28756;-71
2022/05/27 04:44:38;;;;;;;5.07;4.60;;;13.00;99.90;;;;;;488629;243;28228;-71
2022/05/27 04:46:40;;;;;;;4.67;4.27;;;13.10;99.90;;;;;;488629;243;28387;-74
2022/05/27 04:48:42;;;;;;;5.23;4.67;;;;;;;;;;488628;243;28900;-70
2022/05/27 04:50:43;;;;;;;4.60;4.00;;;13.20;99.90;;;;;;488646;242;26488;-71
2022/05/27 04:52:44;;;;;;;5.60;4.83;;;13.20;99.90;;;;;;488624;243;28218;-71
2022/05/27 04:54:45;;;;;;;5.90;5.27;;;13.10;99.90;;;;;;488631;243;29075;-73
2022/05/27 04:56:48;;;;;;;4.50;4.10;;;;;;;;;;488622;243;28284;-72
2022/05/27 04:58:49;;;;;;;5.03;4.53;;;13.20;99.90;;;;;;488619;243;26505;-71
2022/05/27 05:00:50;;;;;;;5.10;4.60;;;13.20;99.90;;;;;;488636;243;28044;-72
2022/05/27 05:02:52;;;;;;;5.30;4.80;;;13.20;99.90;;;;;;488636;243;28109;-74
2022/05/27 05:04:56;;;;;;;8.57;5.20;;;;;;;;;;488650;243;28048;-72
2022/05/27 05:06:55;;;;;;;5.20;4.70;;;13.20;99.90;;;;;;488567;243;27404;-71
2022/05/27 05:08:57;;;;;;;6.30;4.30;;;13.20;99.90;;;;;;488636;243;28109;-72
2022/05/27 05:10:58;;;;;;;5.10;4.47;;;13.30;99.90;;;;;;488676;243;28092;-74
2022/05/27 05:12:59;;;;;;;5.47;5.00;;;13.20;99.90;;;;;;488657;243;28044;-71
2022/05/27 05:15:00;;;;;;;6.20;5.27;;;13.20;99.90;;;;;;488632;243;28894;-71
2022/05/27 05:17:02;;;;;;;5.10;4.60;;;13.10;99.90;;;;;;488620;243;28743;-71
2022/05/27 05:19:03;;;;;;;5.57;5.07;;;13.20;99.90;;;;;;488195;243;28636;-71
2022/05/27 05:21:04;;;;;;;6.53;4.97;;;13.30;99.90;;;;;;488643;243;28222;-74
2022/05/27 05:23:05;;;;;;;5.47;4.70;;;13.20;99.90;;;;;;488632;243;28273;-71
2022/05/27 05:25:07;;;;;;;5.73;5.20;;;13.20;99.90;;;;;;488627;243;28095;-71
2022/05/27 05:27:08;;;;;;;5.00;4.60;;;13.30;99.90;;;;;;488610;243;28145;-71
2022/05/27 05:29:09;;;;;;;6.40;5.53;;;13.30;99.90;;;;;;488584;243;28220;-72
2022/05/27 05:31:16;;;;;;;6.10;4.93;;;13.40;99.90;;;;;;488643;243;28437;-73
2022/05/27 05:33:12;;;;;;;6.30;4.90;;;13.50;99.90;;;;;;488248;243;28192;-71
2022/05/27 05:35:13;;;;;;;5.23;4.70;;;13.50;99.90;;;;;;488604;243;28278;-72
2022/05/27 05:37:14;;;;;;;5.73;4.87;;;13.50;99.90;;;;;;488602;243;28174;-71
2022/05/27 05:39:15;;;;;;;5.00;4.50;;;13.60;99.90;;;;;;488604;243;28818;-71
2022/05/27 05:41:17;;;;;;;5.13;4.63;;;13.70;99.90;;;;;;488636;243;28907;-73
2022/05/27 05:43:18;;;;;;;5.13;4.63;;;13.80;99.90;;;;;;488627;243;28871;-71
2022/05/27 05:45:19;;;;;;;5.20;4.70;;;13.90;99.90;;;;;;488634;243;28323;-72
2022/05/27 05:47:20;;;;;;;5.60;4.50;;;13.90;99.90;;;;;;488625;243;28388;-71
2022/05/27 05:49:22;;;;;;;5.20;4.70;;;13.90;99.90;;;;;;488594;243;28106;-72
2022/05/27 05:51:23;;;;;;;5.27;4.77;;;14.00;99.90;;;;;;488647;243;28470;-73
2022/05/27 05:53:24;;;;;;;6.20;5.00;;;13.90;99.90;;;;;;488626;243;28479;-71
2022/05/27 05:55:26;;;;;;;6.53;5.93;;;13.90;99.90;;;;;;488609;243;28210;-71
2022/05/27 05:57:27;;;;;;;7.33;6.13;;;13.90;99.90;;;;;;488611;243;28294;-71
2022/05/27 05:59:28;;;;;;;7.20;6.57;;;14.00;99.90;;;;;;488628;243;28684;-71
2022/05/27 06:01:29;;;;;;;6.23;5.63;;;14.00;99.90;;;;;;488624;243;28720;-72
2022/05/27 06:03:30;;;;;;;7.13;5.70;;;14.00;99.90;;;;;;488626;243;29150;-71
2022/05/27 06:05:32;;;;;;;4.70;4.30;;;14.00;99.90;;;;;;488581;243;29256;-72
2022/05/27 06:07:33;;;;;;;4.43;4.07;;;14.10;99.90;;;;;;488502;243;29130;-72
2022/05/27 06:09:34;;;;;;;4.80;4.40;;;14.30;99.90;;;;;;488584;243;29302;-71
2022/05/27 06:11:38;;;;;;;5.17;4.77;;;14.40;99.90;;;;;;488615;243;28714;-73
2022/05/27 06:13:37;;;;;;;5.37;4.83;;;14.40;99.90;;;;;;488506;243;28687;-71
2022/05/27 06:15:38;;;;;;;4.90;4.30;;;14.40;99.90;;;;;;488599;243;28753;-72
2022/05/27 06:17:39;;;;;;;4.70;3.87;;;14.50;99.90;;;;;;488612;243;28753;-71
2022/05/27 06:19:40;;;;;;;6.03;4.47;;;14.60;99.90;;;;;;488609;243;28777;-71
2022/05/27 06:21:42;;;;;;;5.43;4.10;;;14.70;99.90;;;;;;488632;243;28734;-72
2022/05/27 06:23:44;;;;;;;4.43;3.60;;;14.80;99.90;;;;;;488610;243;28690;-72
2022/05/27 06:25:44;;;;;;;6.00;4.27;;;14.80;99.90;;;;;;488588;243;28707;-72
2022/05/27 06:27:45;;;;;;;4.40;4.00;;;14.90;99.90;;;;;;488610;243;28710;-71
2022/05/27 06:34:26;;;;;;;5.10;4.10;;;14.80;99.90;;;;;;488626;243;29916;-71
2022/05/27 06:36:27;;;;;;;4.80;4.20;;;14.70;99.90;;;;;;488638;243;29149;-72
2022/05/27 06:38:28;;;;;;;4.40;3.83;;;14.70;99.90;;;;;;488660;243;28766;-73
2022/05/27 06:40:29;;;;;;;4.63;4.20;;;14.60;99.90;;;;;;488610;243;28767;-72
2022/05/27 06:42:31;;;;;;;4.30;4.00;;;14.50;99.90;;;;;;488624;243;28719;-72
2022/05/27 06:44:32;;;;;;;4.63;4.23;;;14.40;99.90;;;;;;488619;243;28703;-71
2022/05/27 06:46:33;;;;;;;5.43;4.00;;;14.30;99.90;;;;;;488644;243;28790;-71
2022/05/27 06:48:34;;;;;;;5.47;4.90;;;14.30;99.90;;;;;;488629;243;28734;-72
2022/05/27 06:50:37;;;;;;;5.50;5.10;;;14.20;99.90;;;;;;488612;243;28716;-71
2022/05/27 06:52:37;;;;;;;6.30;5.10;;;14.20;99.90;;;;;;488541;243;28813;-72
2022/05/27 06:54:38;;;;;;;5.67;5.07;;;14.20;99.90;;;;;;488603;243;28693;-72
2022/05/27 06:56:39;;;;;;;5.40;4.60;;;14.20;99.90;;;;;;488642;243;30078;-72
2022/05/27 06:58:41;;;;;;;5.23;4.73;;;14.20;99.90;;;;;;488620;243;29210;-73
2022/05/27 07:00:42;;;;;;;4.97;4.57;;;14.20;99.90;;;;;;488625;243;29295;-71
2022/05/27 07:02:43;;;;;;;5.63;5.13;;;14.10;99.90;;;;;;488595;243;28418;-71
2022/05/27 07:04:44;;;;;;;5.50;4.90;;;14.10;99.90;;;;;;488614;243;28719;-71
2022/05/27 07:06:46;;;;;;;5.80;5.20;;;14.20;99.90;;;;;;488632;243;28772;-71
2022/05/27 07:08:47;;;;;;;5.47;4.97;;;14.30;99.90;;;;;;488598;243;28723;-72
2022/05/27 07:10:48;;;;;;;5.67;5.13;;;14.30;99.90;;;;;;488498;243;28812;-71
2022/05/27 07:12:50;;;;;;;5.67;4.80;;;14.40;99.90;;;;;;488597;243;28327;-71
2022/05/27 07:14:51;;;;;;;5.20;4.70;;;14.40;99.90;;;;;;488605;243;28869;-72
2022/05/27 07:16:52;;;;;;;5.70;5.20;;;14.40;99.90;;;;;;488600;243;28435;-72
2022/05/27 07:18:53;;;;;;;8.93;4.93;;;14.40;99.90;;;;;;488600;243;28719;-72
2022/05/27 07:20:54;;;;;;;5.40;4.90;;;14.30;99.90;;;;;;488608;243;29187;-71
2022/05/27 07:22:56;;;;;;;4.93;4.53;;;14.30;99.90;;;;;;488600;243;29226;-71
2022/05/27 07:24:57;;;;;;;4.97;4.47;;;14.30;99.90;;;;;;488620;243;28831;-71
2022/05/27 07:26:58;;;;;;;4.60;4.20;;;14.30;99.90;;;;;;488615;243;29230;-73
2022/05/27 07:28:59;;;;;;;4.93;4.10;;;14.20;99.90;;;;;;488611;243;28726;-72
2022/05/27 07:31:01;;;;;;;4.37;3.93;;;14.10;99.90;;;;;;488611;243;28679;-72
2022/05/27 07:33:02;;;;;;;3.90;3.60;;;14.10;99.90;;;;;;488588;243;28733;-72
2022/05/27 07:35:03;;;;;;;4.03;3.73;;;14.00;99.90;;;;;;488579;243;28691;-71
2022/05/27 07:37:04;;;;;;;4.33;3.93;;;14.00;99.90;;;;;;488612;243;28704;-72
2022/05/27 07:39:06;;;;;;;4.07;3.77;;;14.00;99.90;;;;;;488608;243;28403;-72
2022/05/27 07:41:07;;;;;;;4.20;3.90;;;14.00;99.90;;;;;;488592;243;28675;-71
2022/05/27 07:43:08;;;;;;;8.03;4.63;;;13.90;99.90;;;;;;488597;243;28596;-72
2022/05/27 07:45:09;;;;;;;4.07;3.73;;;13.90;99.90;;;;;;488623;243;29140;-74
2022/05/27 07:47:11;;;;;;;4.43;4.03;;;13.90;99.90;;;;;;488585;243;29203;-71
2022/05/27 07:49:12;;;;;;;4.13;3.83;;;14.00;99.90;;;;;;488569;243;29217;-73
2022/05/27 07:51:13;;;;;;;3.90;3.60;;;14.20;99.90;;;;;;488537;243;29142;-72
2022/05/27 07:53:16;;;;;;;4.07;3.57;;;14.30;99.90;;;;;;488533;243;28726;-72
2022/05/27 07:55:16;;;;;;;3.43;3.23;;;14.30;99.90;;;;;;488498;243;28714;-73
2022/05/27 07:57:28;;;;;;;4.00;3.60;;;14.30;99.90;;;;;;488578;243;28688;-72
2022/05/27 07:59:27;;;;;;;4.67;4.00;;;14.40;99.90;;;;;;488533;243;29128;-72
2022/05/27 08:01:29;;;;;;;5.00;3.70;;;14.20;99.90;;;;;;488590;243;29245;-72
2022/05/27 08:03:30;;;;;;;3.17;2.97;;;14.20;99.90;;;;;;488617;243;29193;-74
2022/05/27 08:05:32;;;;;;;3.37;3.10;;;14.30;99.90;;;;;;488612;243;28695;-71
2022/05/27 08:07:32;;;;;;;3.50;3.20;;;14.40;99.90;;;;;;488663;243;28789;-72
2022/05/27 08:09:34;;;;;;;3.33;3.03;;;14.40;99.90;;;;;;488673;243;28687;-71
2022/05/27 08:11:35;;;;;;;4.03;3.63;;;14.40;99.90;;;;;;488667;243;28711;-71
2022/05/27 08:13:37;;;;;;;3.70;3.40;;;14.40;99.90;;;;;;488679;243;28714;-71
2022/05/27 08:15:37;;;;;;;3.97;3.67;;;14.60;99.90;;;;;;488643;243;28682;-71
2022/05/27 08:17:39;;;;;;;3.60;3.30;;;14.80;99.90;;;;;;488641;243;28730;-72
2022/05/27 08:19:40;;;;;;;3.30;3.00;;;15.00;99.90;;;;;;488619;243;28719;-72
2022/05/27 08:21:41;;;;;;;2.80;2.60;;;15.20;99.90;;;;;;488628;243;28812;-72
2022/05/27 08:23:42;;;;;;;3.20;2.90;;;15.40;99.90;;;;;;488635;243;29295;-72
2022/05/27 08:25:44;;;;;;;3.10;2.90;;;15.70;99.90;;;;;;488637;243;29270;-72
2022/05/27 08:27:45;;;;;;;3.70;3.10;;;15.70;99.90;;;;;;488636;243;29260;-71
2022/05/27 08:29:46;;;;;;;2.90;2.70;;;15.70;99.90;;;;;;488608;243;29153;-72
2022/05/27 08:31:47;;;;;;;3.13;2.60;;;15.70;99.90;;;;;;488610;243;28733;-72
2022/05/27 08:38:28;;;;;;;2.80;2.60;;;15.70;99.90;;;;;;488653;243;28691;-71
2022/05/27 08:40:29;;;;;;;3.43;2.73;;;15.50;99.90;;;;;;488625;243;28721;-73
2022/05/27 08:42:30;;;;;;;2.60;2.40;;;15.50;99.90;;;;;;488574;243;28741;-72
2022/05/27 08:44:32;;;;;;;3.33;2.80;;;15.80;99.90;;;;;;488616;243;28721;-72
2022/05/27 08:46:33;;;;;;;3.70;2.70;;;15.80;99.90;;;;;;488619;243;28734;-72
2022/05/27 08:48:34;;;;;;;3.30;3.00;;;15.80;99.90;;;;;;488641;243;28683;-72
2022/05/27 08:50:35;;;;;;;3.93;3.63;;;15.70;99.90;;;;;;488619;243;28788;-73
2022/05/27 08:52:37;;;;;;;8.13;4.07;;;15.80;99.90;;;;;;488621;243;28790;-72
2022/05/27 08:54:38;;;;;;;3.67;2.70;;;15.70;99.90;;;;;;488626;243;29212;-72
2022/05/27 09:01:18;;;;;;;2.97;2.70;;;15.70;99.90;;;;;;488489;243;28763;-72
2022/05/27 09:03:19;;;;;;;2.70;2.50;;;15.60;99.90;;;;;;488623;243;28717;-74
2022/05/27 09:05:21;;;;;;;2.70;2.50;;;15.60;99.90;;;;;;488641;243;28694;-72
2022/05/27 09:07:22;;;;;;;2.83;2.63;;;15.70;99.90;;;;;;488636;243;28715;-72
2022/05/27 09:09:23;;;;;;;2.60;2.40;;;15.70;99.90;;;;;;488591;243;28732;-71
2022/05/27 09:11:26;;;;;;;2.30;2.10;;;15.60;99.90;;;;;;488591;243;28794;-72
2022/05/27 09:13:28;;;;;;;2.43;2.33;;;15.40;99.90;;;;;;488500;243;28740;-74
2022/05/27 09:15:27;;;;;;;2.70;2.30;;;15.40;99.90;;;;;;488461;243;28672;-71
2022/05/27 09:17:28;;;;;;;2.60;2.40;;;15.60;99.90;;;;;;488591;243;29421;-72
2022/05/27 09:19:29;;;;;;;2.97;2.73;;;15.50;99.90;;;;;;488620;243;29868;-71
2022/05/27 09:21:31;;;;;;;2.60;2.40;;;15.30;99.90;;;;;;488571;243;29250;-72
2022/05/27 09:23:32;;;;;;;2.37;2.17;;;15.40;99.90;;;;;;488596;243;29211;-72
2022/05/27 09:25:33;;;;;;;4.00;2.23;;;15.50;99.90;;;;;;488550;243;28704;-71
2022/05/27 09:27:34;;;;;;;2.00;1.90;;;15.50;99.90;;;;;;488607;243;28753;-72
2022/05/27 09:29:36;;;;;;;2.23;2.13;;;15.50;99.90;;;;;;488596;243;28795;-72
2022/05/27 09:31:37;;;;;;;2.40;2.20;;;15.50;99.90;;;;;;488628;243;28681;-71
2022/05/27 09:33:38;;;;;;;2.00;1.90;;;15.50;99.90;;;;;;488618;243;28807;-72
2022/05/27 09:35:39;;;;;;;2.40;2.13;;;15.50;99.90;;;;;;488617;243;28677;-72
2022/05/27 09:37:41;;;;;;;5.23;2.10;;;15.20;99.90;;;;;;488593;243;28785;-72
2022/05/27 09:39:42;;;;;;;2.00;1.90;;;15.20;99.90;;;;;;488615;243;28738;-74
2022/05/27 09:41:43;;;;;;;3.43;2.03;;;15.30;99.90;;;;;;488626;243;28733;-72
2022/05/27 09:43:44;;;;;;;2.30;2.17;;;15.40;99.90;;;;;;488599;243;29288;-74
2022/05/27 09:45:46;;;;;;;2.33;2.13;;;15.40;99.90;;;;;;488620;243;29235;-72
2022/05/27 09:47:47;;;;;;;2.50;2.20;;;15.40;99.90;;;;;;488610;243;29306;-72
2022/05/27 09:49:48;;;;;;;1.90;1.80;;;15.20;99.90;;;;;;488602;243;28923;-73
2022/05/27 09:51:51;;;;;;;3.10;2.10;;;15.10;99.90;;;;;;488639;243;28756;-72
2022/05/27 09:53:51;;;;;;;2.33;2.13;;;15.20;99.90;;;;;;488536;243;28717;-72
2022/05/27 09:55:52;;;;;;;2.00;1.80;;;15.10;99.90;;;;;;488656;243;28672;-72
2022/05/27 09:57:53;;;;;;;2.40;2.20;;;15.20;99.90;;;;;;488638;243;28696;-72
2022/05/27 09:59:56;;;;;;;2.00;1.90;;;15.10;99.90;;;;;;488631;243;28732;-72
2022/05/27 10:01:56;;;;;;;1.90;1.80;;;15.10;99.90;;;;;;488546;243;28708;-72
2022/05/27 10:03:57;;;;;;;3.53;2.20;;;15.30;99.90;;;;;;488631;243;28749;-72
2022/05/27 10:06:00;;;;;;;1.90;1.80;;;15.30;99.90;;;;;;488649;243;28682;-72
2022/05/27 10:07:59;;;;;;;2.60;2.03;;;15.20;99.90;;;;;;488537;243;29172;-72
2022/05/27 10:10:01;;;;;;;2.10;2.00;;;15.10;99.90;;;;;;488625;243;29403;-74
2022/05/27 10:12:02;;;;;;;2.00;1.90;;;15.10;99.90;;;;;;488582;243;29132;-72
2022/05/27 10:14:03;;;;;;;2.07;1.97;;;15.00;99.90;;;;;;488616;243;28713;-72
2022/05/27 10:16:08;;;;;;;2.87;1.80;;;15.10;99.90;;;;;;488591;243;28716;-72
2022/05/27 10:18:06;;;;;;;1.90;1.80;;;15.20;99.90;;;;;;488330;243;28814;-72
2022/05/27 10:20:07;;;;;;;1.90;1.80;;;15.20;99.90;;;;;;488625;243;28806;-74
2022/05/27 10:22:08;;;;;;;2.40;1.77;;;15.20;99.90;;;;;;488634;243;28784;-73
2022/05/27 10:24:09;;;;;;;1.80;1.70;;;15.20;99.90;;;;;;488620;243;28752;-72
2022/05/27 10:26:11;;;;;;;2.30;2.10;;;15.30;99.90;;;;;;488608;243;28683;-72
2022/05/27 10:28:12;;;;;;;1.80;1.70;;;15.40;99.90;;;;;;488594;243;28709;-72
2022/05/27 10:30:13;;;;;;;5.13;1.83;;;15.60;99.90;;;;;;488596;243;28827;-74
2022/05/27 10:32:14;;;;;;;2.53;2.07;;;15.80;99.90;;;;;;488625;243;29232;-72
2022/05/27 10:34:16;;;;;;;1.90;1.80;;;16.00;99.90;;;;;;488595;243;29213;-72
2022/05/27 10:36:17;;;;;;;3.23;1.97;;;15.90;99.90;;;;;;488605;243;29148;-73
2022/05/27 10:38:18;;;;;;;6.43;1.90;;;15.60;99.90;;;;;;488597;243;29285;-71
2022/05/27 10:40:19;;;;;;;2.00;1.80;;;15.50;99.90;;;;;;488652;243;28714;-73
2022/05/27 10:42:21;;;;;;;1.97;1.80;;;15.60;99.90;;;;;;488613;243;28765;-72
2022/05/27 10:44:22;;;;;;;1.80;1.70;;;15.50;99.90;;;;;;488621;243;28711;-72
2022/05/27 10:46:23;;;;;;;2.07;1.97;;;15.40;99.90;;;;;;488609;243;28798;-72
2022/05/27 10:48:24;;;;;;;2.70;1.90;;;15.30;99.90;;;;;;488591;243;28731;-72